createdAt,value
2016-07-31T00:00:01.104Z,74243
2016-07-31T00:00:09.850Z,74240
2016-07-31T00:00:18.534Z,74245
2016-07-31T00:00:27.255Z,74239
2016-07-31T00:00:35.978Z,74238
2016-07-31T00:00:44.680Z,74240
2016-07-31T00:00:53.403Z,74240
2016-07-31T00:01:02.145Z,74240
2016-07-31T00:01:10.875Z,74245
2016-07-31T00:01:19.600Z,74245
2016-07-31T00:01:28.310Z,74242
2016-07-31T00:01:37.024Z,74242
2016-07-31T00:01:45.687Z,74245
2016-07-31T00:01:54.411Z,74243
2016-07-31T00:02:03.143Z,74240
2016-07-31T00:02:11.869Z,74243
2016-07-31T00:02:20.592Z,74239
2016-07-31T00:02:29.336Z,74243
2016-07-31T00:02:38.076Z,74243
2016-07-31T00:02:46.773Z,74241
2016-07-31T00:02:55.481Z,74243
2016-07-31T00:03:04.221Z,74239
2016-07-31T00:03:12.898Z,74239
2016-07-31T00:03:21.620Z,74239
2016-07-31T00:03:30.345Z,74236
2016-07-31T00:03:39.033Z,74240
2016-07-31T00:03:47.720Z,74239
2016-07-31T00:03:56.451Z,74234
2016-07-31T00:04:05.162Z,74240
2016-07-31T00:04:13.858Z,74239
2016-07-31T00:04:22.563Z,74237
2016-07-31T00:04:31.282Z,74240
2016-07-31T00:04:40.025Z,74241
2016-07-31T00:04:48.742Z,74245
2016-07-31T00:04:57.423Z,74250
2016-07-31T00:05:06.133Z,74249
2016-07-31T00:05:14.854Z,74248
2016-07-31T00:05:23.584Z,74245
2016-07-31T00:05:32.303Z,74249
2016-07-31T00:05:41.048Z,74250
2016-07-31T00:05:49.800Z,74249
2016-07-31T00:05:58.538Z,74251
2016-07-31T00:06:07.225Z,74248
2016-07-31T00:06:15.974Z,74247
2016-07-31T00:06:24.707Z,74245
2016-07-31T00:06:33.416Z,74249
2016-07-31T00:06:42.126Z,74249
2016-07-31T00:06:50.841Z,74246
2016-07-31T00:06:59.561Z,74251
2016-07-31T00:07:08.264Z,74250
2016-07-31T00:07:16.986Z,74247
2016-07-31T00:07:25.699Z,74248
2016-07-31T00:07:34.379Z,74249
2016-07-31T00:07:43.062Z,74246
2016-07-31T00:07:51.812Z,74241
2016-07-31T00:08:00.479Z,74244
2016-07-31T00:08:09.180Z,74247
2016-07-31T00:08:17.889Z,74251
2016-07-31T00:08:26.600Z,74251
2016-07-31T00:08:35.287Z,74248
2016-07-31T00:08:44.018Z,74248
2016-07-31T00:08:52.721Z,74246
2016-07-31T00:09:01.425Z,74245
2016-07-31T00:09:10.134Z,74248
2016-07-31T00:09:18.872Z,74250
2016-07-31T00:09:27.607Z,74251
2016-07-31T00:09:36.339Z,74248
2016-07-31T00:09:45.034Z,74246
2016-07-31T00:09:53.767Z,74249
2016-07-31T00:10:02.503Z,74249
2016-07-31T00:10:11.198Z,74247
2016-07-31T00:10:19.910Z,74250
2016-07-31T00:10:28.619Z,74248
2016-07-31T00:10:37.353Z,74247
2016-07-31T00:10:46.087Z,74245
2016-07-31T00:10:54.769Z,74242
2016-07-31T00:11:03.511Z,74245
2016-07-31T00:11:12.240Z,74240
2016-07-31T00:11:20.921Z,74243
2016-07-31T00:11:29.660Z,74241
2016-07-31T00:11:38.370Z,74239
2016-07-31T00:11:47.066Z,74241
2016-07-31T00:11:55.752Z,74239
2016-07-31T00:12:04.475Z,74237
2016-07-31T00:12:13.187Z,74236
2016-07-31T00:12:21.890Z,74233
2016-07-31T00:12:30.580Z,74235
2016-07-31T00:12:39.276Z,74231
2016-07-31T00:12:56.660Z,74232
2016-07-31T00:13:05.374Z,74234
2016-07-31T00:13:14.100Z,74232
2016-07-31T00:13:22.819Z,74230
2016-07-31T00:13:31.525Z,74237
2016-07-31T00:13:40.249Z,74235
2016-07-31T00:13:48.966Z,74237
2016-07-31T00:13:57.667Z,74235
2016-07-31T00:14:06.373Z,74233
2016-07-31T00:14:15.083Z,74237
2016-07-31T00:14:23.800Z,74236
2016-07-31T00:14:32.528Z,74234
2016-07-31T00:14:41.247Z,74233
2016-07-31T00:14:49.966Z,74234
2016-07-31T00:14:58.662Z,74236
2016-07-31T00:15:07.349Z,74238
2016-07-31T00:15:16.078Z,74242
2016-07-31T00:15:24.781Z,74240
2016-07-31T00:15:33.458Z,74237
2016-07-31T00:15:42.189Z,74240
2016-07-31T00:15:50.885Z,74238
2016-07-31T00:15:59.606Z,74238
2016-07-31T00:16:08.316Z,74242
2016-07-31T00:16:17.034Z,74237
2016-07-31T00:16:25.761Z,74242
2016-07-31T00:16:34.485Z,74242
2016-07-31T00:16:43.194Z,74241
2016-07-31T00:16:51.898Z,74241
2016-07-31T00:17:00.631Z,74243
2016-07-31T00:17:09.354Z,74239
2016-07-31T00:17:18.035Z,74236
2016-07-31T00:17:26.765Z,74238
2016-07-31T00:17:35.508Z,74235
2016-07-31T00:17:44.199Z,74243
2016-07-31T00:17:52.886Z,74239
2016-07-31T00:18:01.580Z,74235
2016-07-31T00:18:10.311Z,74235
2016-07-31T00:18:19.075Z,74232
2016-07-31T00:18:27.771Z,74233
2016-07-31T00:18:36.495Z,74241
2016-07-31T00:18:45.178Z,74240
2016-07-31T00:18:53.866Z,74241
2016-07-31T00:19:02.572Z,74239
2016-07-31T00:19:11.240Z,74241
2016-07-31T00:19:19.946Z,74235
2016-07-31T00:19:28.624Z,74235
2016-07-31T00:19:37.323Z,74230
2016-07-31T00:19:46.040Z,74235
2016-07-31T00:20:03.526Z,74233
2016-07-31T00:20:12.268Z,74233
2016-07-31T00:20:20.970Z,74236
2016-07-31T00:20:29.668Z,74233
2016-07-31T00:20:38.360Z,74235
2016-07-31T00:20:47.110Z,74232
2016-07-31T00:20:55.815Z,74231
2016-07-31T00:21:04.560Z,74231
2016-07-31T00:21:13.263Z,74232
2016-07-31T00:21:21.965Z,74232
2016-07-31T00:21:30.704Z,74237
2016-07-31T00:21:39.414Z,74232
2016-07-31T00:21:48.124Z,74236
2016-07-31T00:21:56.823Z,74234
2016-07-31T00:22:05.560Z,74233
2016-07-31T00:22:14.269Z,74234
2016-07-31T00:22:22.960Z,74232
2016-07-31T00:22:31.697Z,74232
2016-07-31T00:22:40.402Z,74233
2016-07-31T00:22:49.114Z,74235
2016-07-31T00:22:57.836Z,74233
2016-07-31T00:23:06.557Z,74233
2016-07-31T00:23:15.252Z,74232
2016-07-31T00:23:23.917Z,74231
2016-07-31T00:23:32.651Z,74230
2016-07-31T00:23:41.385Z,74233
2016-07-31T00:23:50.814Z,74233
2016-07-31T00:23:59.494Z,74231
2016-07-31T00:24:08.170Z,74230
2016-07-31T00:24:16.855Z,74236
2016-07-31T00:24:25.559Z,74233
2016-07-31T00:24:34.258Z,74239
2016-07-31T00:24:43.006Z,74239
2016-07-31T00:24:51.706Z,74237
2016-07-31T00:25:00.439Z,74238
2016-07-31T00:25:09.151Z,74238
2016-07-31T00:25:17.847Z,74238
2016-07-31T00:25:26.586Z,74239
2016-07-31T00:25:35.271Z,74238
2016-07-31T00:25:43.953Z,74235
2016-07-31T00:25:52.675Z,74239
2016-07-31T00:26:02.091Z,74236
2016-07-31T00:26:10.856Z,74232
2016-07-31T00:26:19.551Z,74237
2016-07-31T00:26:28.291Z,74234
2016-07-31T00:26:37.023Z,74230
2016-07-31T00:26:45.735Z,74227
2016-07-31T00:26:54.431Z,74225
2016-07-31T00:27:03.152Z,74223
2016-07-31T00:27:11.900Z,74225
2016-07-31T00:27:20.621Z,74223
2016-07-31T00:27:29.310Z,74224
2016-07-31T00:27:38.057Z,74220
2016-07-31T00:27:46.795Z,74219
2016-07-31T00:28:04.159Z,74220
2016-07-31T00:28:12.862Z,74223
2016-07-31T00:28:21.552Z,74220
2016-07-31T00:28:30.291Z,74223
2016-07-31T00:28:38.989Z,74223
2016-07-31T00:28:47.700Z,74218
2016-07-31T00:28:56.428Z,74218
2016-07-31T00:29:05.174Z,74219
2016-07-31T00:29:13.862Z,74220
2016-07-31T00:29:22.541Z,74218
2016-07-31T00:29:31.269Z,74222
2016-07-31T00:29:39.996Z,74221
2016-07-31T00:29:48.708Z,74220
2016-07-31T00:29:57.380Z,74222
2016-07-31T00:30:06.110Z,74219
2016-07-31T00:30:14.837Z,74224
2016-07-31T00:30:23.605Z,74222
2016-07-31T00:30:32.331Z,74223
2016-07-31T00:30:41.057Z,74226
2016-07-31T00:30:49.805Z,74226
2016-07-31T00:30:58.495Z,74226
2016-07-31T00:31:07.211Z,74225
2016-07-31T00:31:15.928Z,74227
2016-07-31T00:31:24.645Z,74226
2016-07-31T00:31:33.350Z,74226
2016-07-31T00:31:42.066Z,74229
2016-07-31T00:31:50.782Z,74232
2016-07-31T00:31:59.501Z,74233
2016-07-31T00:32:08.917Z,74230
2016-07-31T00:32:17.662Z,74229
2016-07-31T00:32:26.359Z,74229
2016-07-31T00:32:35.112Z,74229
2016-07-31T00:32:43.815Z,74231
2016-07-31T00:32:52.550Z,74230
2016-07-31T00:33:01.271Z,74225
2016-07-31T00:33:09.979Z,74228
2016-07-31T00:33:18.716Z,74225
2016-07-31T00:33:27.409Z,74225
2016-07-31T00:33:36.146Z,74230
2016-07-31T00:33:44.829Z,74232
2016-07-31T00:33:53.520Z,74232
2016-07-31T00:34:02.219Z,74234
2016-07-31T00:34:10.901Z,74235
2016-07-31T00:34:19.623Z,74236
2016-07-31T00:34:28.341Z,74238
2016-07-31T00:34:37.047Z,74235
2016-07-31T00:34:46.465Z,74239
2016-07-31T00:34:55.144Z,74240
2016-07-31T00:35:03.819Z,74242
2016-07-31T00:35:12.564Z,74241
2016-07-31T00:35:21.307Z,74241
2016-07-31T00:35:30.025Z,74244
2016-07-31T00:35:38.741Z,74244
2016-07-31T00:35:47.439Z,74239
2016-07-31T00:35:56.184Z,74241
2016-07-31T00:36:04.918Z,74240
2016-07-31T00:36:13.630Z,74242
2016-07-31T00:36:22.336Z,74241
2016-07-31T00:36:31.045Z,74240
2016-07-31T00:36:39.787Z,74242
2016-07-31T00:36:48.450Z,74238
2016-07-31T00:36:57.834Z,74241
2016-07-31T00:37:06.559Z,74241
2016-07-31T00:37:15.258Z,74239
2016-07-31T00:37:23.982Z,74238
2016-07-31T00:37:32.727Z,74237
2016-07-31T00:37:41.429Z,74239
2016-07-31T00:37:50.168Z,74237
2016-07-31T00:37:58.827Z,74240
2016-07-31T00:38:07.538Z,74238
2016-07-31T00:38:16.281Z,74239
2016-07-31T00:38:25.021Z,74240
2016-07-31T00:38:33.706Z,74236
2016-07-31T00:38:42.421Z,74236
2016-07-31T00:38:51.125Z,74236
2016-07-31T00:38:59.835Z,74236
2016-07-31T00:39:08.580Z,74236
2016-07-31T00:39:17.316Z,74235
2016-07-31T00:39:26.017Z,74231
2016-07-31T00:39:34.774Z,74230
2016-07-31T00:39:43.480Z,74235
2016-07-31T00:39:52.170Z,74233
2016-07-31T00:40:00.884Z,74230
2016-07-31T00:40:09.608Z,74231
2016-07-31T00:40:18.340Z,74229
2016-07-31T00:40:27.062Z,74231
2016-07-31T00:40:35.767Z,74232
2016-07-31T00:40:44.487Z,74232
2016-07-31T00:40:53.179Z,74233
2016-07-31T00:41:01.882Z,74230
2016-07-31T00:41:10.617Z,74228
2016-07-31T00:41:19.331Z,74226
2016-07-31T00:41:28.057Z,74229
2016-07-31T00:41:36.755Z,74231
2016-07-31T00:41:45.452Z,74233
2016-07-31T00:41:54.172Z,74237
2016-07-31T00:42:02.914Z,74235
2016-07-31T00:42:11.641Z,74238
2016-07-31T00:42:20.392Z,74236
2016-07-31T00:42:29.139Z,74235
2016-07-31T00:42:37.819Z,74235
2016-07-31T00:42:46.590Z,74234
2016-07-31T00:43:03.979Z,74233
2016-07-31T00:43:12.700Z,74235
2016-07-31T00:43:21.370Z,74236
2016-07-31T00:43:30.101Z,74237
2016-07-31T00:43:38.855Z,74236
2016-07-31T00:43:47.573Z,74234
2016-07-31T00:43:56.262Z,74237
2016-07-31T00:44:04.965Z,74238
2016-07-31T00:44:13.710Z,74239
2016-07-31T00:44:22.436Z,74236
2016-07-31T00:44:31.162Z,74236
2016-07-31T00:44:39.906Z,74233
2016-07-31T00:44:48.606Z,74236
2016-07-31T00:44:57.290Z,74236
2016-07-31T00:45:06.029Z,74240
2016-07-31T00:45:14.707Z,74244
2016-07-31T00:45:23.407Z,74242
2016-07-31T00:45:32.808Z,74240
2016-07-31T00:45:41.554Z,74242
2016-07-31T00:45:50.270Z,74244
2016-07-31T00:45:58.953Z,74243
2016-07-31T00:46:07.671Z,74240
2016-07-31T00:46:16.411Z,74237
2016-07-31T00:46:25.096Z,74237
2016-07-31T00:46:33.785Z,74237
2016-07-31T00:46:42.504Z,74234
2016-07-31T00:46:51.227Z,74233
2016-07-31T00:46:59.965Z,74227
2016-07-31T00:47:08.651Z,74227
2016-07-31T00:47:17.342Z,74230
2016-07-31T00:47:26.083Z,74229
2016-07-31T00:47:34.789Z,74232
2016-07-31T00:47:44.207Z,74233
2016-07-31T00:47:52.892Z,74232
2016-07-31T00:48:01.603Z,74234
2016-07-31T00:48:10.321Z,74236
2016-07-31T00:48:19.050Z,74235
2016-07-31T00:48:27.788Z,74235
2016-07-31T00:48:36.486Z,74235
2016-07-31T00:48:45.192Z,74230
2016-07-31T00:48:53.894Z,74233
2016-07-31T00:49:02.604Z,74232
2016-07-31T00:49:11.332Z,74232
2016-07-31T00:49:20.043Z,74230
2016-07-31T00:49:28.730Z,74231
2016-07-31T00:49:37.460Z,74232
2016-07-31T00:49:46.849Z,74232
2016-07-31T00:49:55.522Z,74235
2016-07-31T00:50:04.209Z,74235
2016-07-31T00:50:12.931Z,74235
2016-07-31T00:50:21.611Z,74237
2016-07-31T00:50:30.300Z,74239
2016-07-31T00:50:39.036Z,74237
2016-07-31T00:50:47.717Z,74239
2016-07-31T00:50:56.447Z,74237
2016-07-31T00:51:05.784Z,74239
2016-07-31T00:51:14.493Z,74237
2016-07-31T00:51:23.168Z,74236
2016-07-31T00:51:31.875Z,74236
2016-07-31T00:51:40.572Z,74235
2016-07-31T00:51:49.325Z,74237
2016-07-31T00:51:58.042Z,74237
2016-07-31T00:52:06.747Z,74235
2016-07-31T00:52:15.442Z,74233
2016-07-31T00:52:24.177Z,74232
2016-07-31T00:52:32.926Z,74237
2016-07-31T00:52:41.601Z,74235
2016-07-31T00:52:50.290Z,74234
2016-07-31T00:52:59.008Z,74239
2016-07-31T00:53:07.741Z,74237
2016-07-31T00:53:16.437Z,74236
2016-07-31T00:53:25.150Z,74237
2016-07-31T00:53:33.875Z,74240
2016-07-31T00:53:42.613Z,74236
2016-07-31T00:53:51.323Z,74238
2016-07-31T00:54:00.046Z,74241
2016-07-31T00:54:08.748Z,74238
2016-07-31T00:54:17.456Z,74239
2016-07-31T00:54:26.167Z,74239
2016-07-31T00:54:34.889Z,74237
2016-07-31T00:54:43.613Z,74234
2016-07-31T00:54:52.329Z,74233
2016-07-31T00:55:01.026Z,74233
2016-07-31T00:55:09.735Z,74234
2016-07-31T00:55:18.435Z,74235
2016-07-31T00:55:27.134Z,74237
2016-07-31T00:55:35.853Z,74237
2016-07-31T00:55:44.572Z,74237
2016-07-31T00:55:53.315Z,74235
2016-07-31T00:56:01.996Z,74239
2016-07-31T00:56:10.699Z,74235
2016-07-31T00:56:20.059Z,74233
2016-07-31T00:56:28.767Z,74233
2016-07-31T00:56:37.475Z,74233
2016-07-31T00:56:46.225Z,74235
2016-07-31T00:56:54.929Z,74233
2016-07-31T00:57:03.657Z,74234
2016-07-31T00:57:12.393Z,74233
2016-07-31T00:57:21.161Z,74235
2016-07-31T00:57:30.574Z,74232
2016-07-31T00:57:39.269Z,74231
2016-07-31T00:57:47.999Z,74236
2016-07-31T00:58:05.414Z,74232
2016-07-31T00:58:14.100Z,74230
2016-07-31T00:58:22.840Z,74229
2016-07-31T00:58:31.553Z,74231
2016-07-31T00:58:40.304Z,74225
2016-07-31T00:58:49.035Z,74230
2016-07-31T00:58:57.795Z,74228
2016-07-31T00:59:06.475Z,74227
2016-07-31T00:59:15.198Z,74229
2016-07-31T00:59:23.880Z,74226
2016-07-31T00:59:32.597Z,74227
2016-07-31T00:59:41.293Z,74228
2016-07-31T00:59:50.033Z,74228
2016-07-31T00:59:58.717Z,74229
2016-07-31T01:00:07.405Z,74229
2016-07-31T01:00:16.151Z,74234
2016-07-31T01:00:24.898Z,74236
2016-07-31T01:00:33.591Z,74238
2016-07-31T01:00:42.315Z,74238
2016-07-31T01:00:51.014Z,74239
2016-07-31T01:00:59.693Z,74243
2016-07-31T01:01:08.412Z,74241
2016-07-31T01:01:17.100Z,74241
2016-07-31T01:01:25.851Z,74236
2016-07-31T01:01:34.594Z,74229
2016-07-31T01:01:43.288Z,74227
2016-07-31T01:01:52.020Z,74231
2016-07-31T01:02:00.744Z,74234
2016-07-31T01:02:09.492Z,74234
2016-07-31T01:02:18.234Z,74233
2016-07-31T01:02:26.927Z,74232
2016-07-31T01:02:35.604Z,74231
2016-07-31T01:02:44.310Z,74232
2016-07-31T01:02:53.029Z,74233
2016-07-31T01:03:01.745Z,74225
2016-07-31T01:03:10.468Z,74225
2016-07-31T01:03:19.151Z,74220
2016-07-31T01:03:27.851Z,74222
2016-07-31T01:03:36.560Z,74224
2016-07-31T01:03:45.253Z,74225
2016-07-31T01:03:54.006Z,74231
2016-07-31T01:04:02.717Z,74226
2016-07-31T01:04:11.441Z,74230
2016-07-31T01:04:20.150Z,74228
2016-07-31T01:04:28.873Z,74233
2016-07-31T01:04:37.554Z,74234
2016-07-31T01:04:46.259Z,74233
2016-07-31T01:04:54.975Z,74235
2016-07-31T01:05:03.690Z,74238
2016-07-31T01:05:12.404Z,74235
2016-07-31T01:05:21.077Z,74233
2016-07-31T01:05:29.837Z,74231
2016-07-31T01:05:38.535Z,74235
2016-07-31T01:05:47.227Z,74235
2016-07-31T01:05:55.917Z,74237
2016-07-31T01:06:04.654Z,74236
2016-07-31T01:06:13.374Z,74236
2016-07-31T01:06:22.102Z,74239
2016-07-31T01:06:30.868Z,74242
2016-07-31T01:06:39.544Z,74238
2016-07-31T01:06:48.247Z,74238
2016-07-31T01:06:56.986Z,74234
2016-07-31T01:07:05.702Z,74233
2016-07-31T01:07:15.088Z,74237
2016-07-31T01:07:23.806Z,74233
2016-07-31T01:07:32.539Z,74235
2016-07-31T01:07:41.239Z,74236
2016-07-31T01:07:49.976Z,74236
2016-07-31T01:07:58.666Z,74232
2016-07-31T01:08:07.395Z,74232
2016-07-31T01:08:16.131Z,74237
2016-07-31T01:08:24.818Z,74233
2016-07-31T01:08:33.554Z,74234
2016-07-31T01:08:42.249Z,74233
2016-07-31T01:08:50.955Z,74232
2016-07-31T01:08:59.696Z,74232
2016-07-31T01:09:08.461Z,74233
2016-07-31T01:09:17.182Z,74234
2016-07-31T01:09:25.918Z,74230
2016-07-31T01:09:34.642Z,74234
2016-07-31T01:09:43.339Z,74234
2016-07-31T01:09:52.043Z,74232
2016-07-31T01:10:00.770Z,74231
2016-07-31T01:10:09.479Z,74233
2016-07-31T01:10:18.182Z,74231
2016-07-31T01:10:26.916Z,74230
2016-07-31T01:10:36.279Z,74227
2016-07-31T01:10:44.997Z,74230
2016-07-31T01:10:53.741Z,74226
2016-07-31T01:11:02.479Z,74233
2016-07-31T01:11:11.208Z,74230
2016-07-31T01:11:19.949Z,74232
2016-07-31T01:11:28.678Z,74236
2016-07-31T01:11:37.409Z,74232
2016-07-31T01:11:46.122Z,74233
2016-07-31T01:11:54.854Z,74234
2016-07-31T01:12:03.575Z,74231
2016-07-31T01:12:12.291Z,74234
2016-07-31T01:12:21.003Z,74232
2016-07-31T01:12:29.704Z,74229
2016-07-31T01:12:38.389Z,74231
2016-07-31T01:12:47.089Z,74232
2016-07-31T01:13:04.506Z,74235
2016-07-31T01:13:13.209Z,74231
2016-07-31T01:13:21.916Z,74231
2016-07-31T01:13:30.635Z,74235
2016-07-31T01:13:39.347Z,74235
2016-07-31T01:13:48.072Z,74237
2016-07-31T01:13:57.424Z,74237
2016-07-31T01:14:06.129Z,74238
2016-07-31T01:14:14.852Z,74235
2016-07-31T01:14:23.574Z,74232
2016-07-31T01:14:32.277Z,74231
2016-07-31T01:14:41.640Z,74228
2016-07-31T01:14:50.304Z,74231
2016-07-31T01:14:58.985Z,74228
2016-07-31T01:15:07.674Z,74231
2016-07-31T01:15:16.401Z,74232
2016-07-31T01:15:25.086Z,74238
2016-07-31T01:15:33.832Z,74237
2016-07-31T01:15:42.513Z,74237
2016-07-31T01:15:51.235Z,74236
2016-07-31T01:16:00.600Z,74236
2016-07-31T01:16:09.322Z,74238
2016-07-31T01:16:18.038Z,74235
2016-07-31T01:16:26.746Z,74235
2016-07-31T01:16:36.127Z,74232
2016-07-31T01:16:44.826Z,74235
2016-07-31T01:16:53.499Z,74233
2016-07-31T01:17:02.231Z,74234
2016-07-31T01:17:10.949Z,74235
2016-07-31T01:17:20.304Z,74234
2016-07-31T01:17:29.043Z,74231
2016-07-31T01:17:37.745Z,74233
2016-07-31T01:17:46.427Z,74228
2016-07-31T01:17:55.837Z,74230
2016-07-31T01:18:04.563Z,74231
2016-07-31T01:18:13.295Z,74230
2016-07-31T01:18:22.020Z,74231
2016-07-31T01:18:30.708Z,74232
2016-07-31T01:18:39.439Z,74233
2016-07-31T01:18:48.188Z,74228
2016-07-31T01:18:56.890Z,74227
2016-07-31T01:19:05.601Z,74227
2016-07-31T01:19:14.297Z,74228
2016-07-31T01:19:22.975Z,74226
2016-07-31T01:19:31.692Z,74232
2016-07-31T01:19:40.359Z,74231
2016-07-31T01:19:49.078Z,74231
2016-07-31T01:19:57.800Z,74234
2016-07-31T01:20:06.524Z,74237
2016-07-31T01:20:15.232Z,74233
2016-07-31T01:20:23.936Z,74230
2016-07-31T01:20:32.642Z,74232
2016-07-31T01:20:42.060Z,74233
2016-07-31T01:20:50.770Z,74228
2016-07-31T01:20:59.500Z,74225
2016-07-31T01:21:08.236Z,74228
2016-07-31T01:21:16.921Z,74229
2016-07-31T01:21:25.667Z,74228
2016-07-31T01:21:35.073Z,74225
2016-07-31T01:21:43.791Z,74226
2016-07-31T01:21:52.514Z,74225
2016-07-31T01:22:01.240Z,74224
2016-07-31T01:22:09.921Z,74226
2016-07-31T01:22:18.674Z,74223
2016-07-31T01:22:27.406Z,74227
2016-07-31T01:22:36.120Z,74224
2016-07-31T01:22:44.818Z,74223
2016-07-31T01:22:53.558Z,74226
2016-07-31T01:23:02.273Z,74228
2016-07-31T01:23:10.993Z,74232
2016-07-31T01:23:19.729Z,74231
2016-07-31T01:23:28.472Z,74226
2016-07-31T01:23:37.196Z,74234
2016-07-31T01:23:45.913Z,74229
2016-07-31T01:23:54.639Z,74231
2016-07-31T01:24:03.381Z,74231
2016-07-31T01:24:12.084Z,74231
2016-07-31T01:24:20.791Z,74230
2016-07-31T01:24:29.481Z,74230
2016-07-31T01:24:38.149Z,74230
2016-07-31T01:24:46.864Z,74230
2016-07-31T01:24:55.604Z,74229
2016-07-31T01:25:05.005Z,74231
2016-07-31T01:25:13.770Z,74228
2016-07-31T01:25:22.532Z,74228
2016-07-31T01:25:31.272Z,74228
2016-07-31T01:25:39.999Z,74228
2016-07-31T01:25:48.750Z,74228
2016-07-31T01:25:57.484Z,74224
2016-07-31T01:26:06.262Z,74220
2016-07-31T01:26:14.962Z,74223
2016-07-31T01:26:23.655Z,74221
2016-07-31T01:26:33.063Z,74222
2016-07-31T01:26:41.773Z,74224
2016-07-31T01:26:50.499Z,74223
2016-07-31T01:26:59.220Z,74224
2016-07-31T01:27:07.936Z,74226
2016-07-31T01:27:16.646Z,74229
2016-07-31T01:27:25.332Z,74227
2016-07-31T01:27:34.005Z,74227
2016-07-31T01:27:42.714Z,74229
2016-07-31T01:27:51.397Z,74229
2016-07-31T01:28:08.766Z,74226
2016-07-31T01:28:17.452Z,74222
2016-07-31T01:28:26.117Z,74223
2016-07-31T01:28:34.815Z,74221
2016-07-31T01:28:43.541Z,74221
2016-07-31T01:28:52.261Z,74218
2016-07-31T01:29:00.985Z,74219
2016-07-31T01:29:09.705Z,74221
2016-07-31T01:29:18.420Z,74217
2016-07-31T01:29:27.142Z,74222
2016-07-31T01:29:35.867Z,74219
2016-07-31T01:29:44.550Z,74220
2016-07-31T01:29:53.257Z,74216
2016-07-31T01:30:01.977Z,74217
2016-07-31T01:30:10.708Z,74217
2016-07-31T01:30:19.404Z,74217
2016-07-31T01:30:28.072Z,74217
2016-07-31T01:30:36.755Z,74217
2016-07-31T01:30:45.473Z,74218
2016-07-31T01:30:54.202Z,74221
2016-07-31T01:31:02.923Z,74222
2016-07-31T01:31:11.610Z,74220
2016-07-31T01:31:20.362Z,74218
2016-07-31T01:31:29.080Z,74216
2016-07-31T01:31:37.776Z,74216
2016-07-31T01:31:46.471Z,74213
2016-07-31T01:31:55.180Z,74213
2016-07-31T01:32:03.875Z,74211
2016-07-31T01:32:12.577Z,74213
2016-07-31T01:32:21.310Z,74213
2016-07-31T01:32:30.019Z,74214
2016-07-31T01:32:38.782Z,74216
2016-07-31T01:32:47.494Z,74213
2016-07-31T01:32:56.231Z,74215
2016-07-31T01:33:04.930Z,74215
2016-07-31T01:33:13.584Z,74218
2016-07-31T01:33:22.301Z,74215
2016-07-31T01:33:30.989Z,74216
2016-07-31T01:33:39.674Z,74218
2016-07-31T01:33:48.413Z,74215
2016-07-31T01:33:57.159Z,74214
2016-07-31T01:34:05.845Z,74213
2016-07-31T01:34:14.592Z,74217
2016-07-31T01:34:23.337Z,74215
2016-07-31T01:34:32.074Z,74214
2016-07-31T01:34:40.802Z,74210
2016-07-31T01:34:49.493Z,74212
2016-07-31T01:34:58.244Z,74207
2016-07-31T01:35:07.008Z,74208
2016-07-31T01:35:15.719Z,74206
2016-07-31T01:35:24.382Z,74206
2016-07-31T01:35:33.120Z,74209
2016-07-31T01:35:41.833Z,74206
2016-07-31T01:35:50.534Z,74209
2016-07-31T01:35:59.238Z,74210
2016-07-31T01:36:07.972Z,74212
2016-07-31T01:36:16.690Z,74209
2016-07-31T01:36:25.445Z,74208
2016-07-31T01:36:34.147Z,74208
2016-07-31T01:36:42.858Z,74207
2016-07-31T01:36:51.565Z,74206
2016-07-31T01:37:00.291Z,74205
2016-07-31T01:37:09.036Z,74205
2016-07-31T01:37:17.720Z,74199
2016-07-31T01:37:26.431Z,74203
2016-07-31T01:37:35.130Z,74199
2016-07-31T01:37:43.839Z,74191
2016-07-31T01:37:52.558Z,74202
2016-07-31T01:38:01.257Z,74205
2016-07-31T01:38:09.927Z,74212
2016-07-31T01:38:18.642Z,74212
2016-07-31T01:38:27.366Z,74215
2016-07-31T01:38:36.107Z,74212
2016-07-31T01:38:44.853Z,74214
2016-07-31T01:38:53.599Z,74214
2016-07-31T01:39:02.294Z,74214
2016-07-31T01:39:10.999Z,74212
2016-07-31T01:39:19.738Z,74218
2016-07-31T01:39:28.474Z,74210
2016-07-31T01:39:37.198Z,74212
2016-07-31T01:39:45.897Z,74207
2016-07-31T01:39:54.599Z,74209
2016-07-31T01:40:03.257Z,74209
2016-07-31T01:40:11.962Z,74205
2016-07-31T01:40:20.659Z,74205
2016-07-31T01:40:30.075Z,74214
2016-07-31T01:40:38.808Z,74214
2016-07-31T01:40:47.539Z,74211
2016-07-31T01:40:56.276Z,74206
2016-07-31T01:41:04.963Z,74207
2016-07-31T01:41:14.388Z,74206
2016-07-31T01:41:23.130Z,74210
2016-07-31T01:41:31.832Z,74212
2016-07-31T01:41:40.499Z,74208
2016-07-31T01:41:49.199Z,74204
2016-07-31T01:41:57.940Z,74206
2016-07-31T01:42:06.671Z,74210
2016-07-31T01:42:16.058Z,74206
2016-07-31T01:42:24.753Z,74205
2016-07-31T01:42:33.461Z,74208
2016-07-31T01:42:42.232Z,74202
2016-07-31T01:42:50.923Z,74206
2016-07-31T01:43:17.147Z,74208
2016-07-31T01:43:25.861Z,74210
2016-07-31T01:43:35.262Z,74208
2016-07-31T01:43:44.018Z,74211
2016-07-31T01:43:52.764Z,74212
2016-07-31T01:44:01.541Z,74209
2016-07-31T01:44:10.947Z,74210
2016-07-31T01:44:19.654Z,74209
2016-07-31T01:44:28.340Z,74210
2016-07-31T01:44:37.083Z,74212
2016-07-31T01:44:45.775Z,74207
2016-07-31T01:44:54.495Z,74212
2016-07-31T01:45:03.221Z,74215
2016-07-31T01:45:11.943Z,74217
2016-07-31T01:45:20.613Z,74215
2016-07-31T01:45:29.345Z,74217
2016-07-31T01:45:38.061Z,74215
2016-07-31T01:45:46.795Z,74214
2016-07-31T01:45:55.509Z,74212
2016-07-31T01:46:04.213Z,74215
2016-07-31T01:46:12.897Z,74212
2016-07-31T01:46:21.597Z,74211
2016-07-31T01:46:30.289Z,74209
2016-07-31T01:46:38.998Z,74213
2016-07-31T01:46:47.743Z,74211
2016-07-31T01:46:56.483Z,74209
2016-07-31T01:47:05.229Z,74209
2016-07-31T01:47:13.967Z,74204
2016-07-31T01:47:22.675Z,74203
2016-07-31T01:47:31.392Z,74206
2016-07-31T01:47:40.109Z,74213
2016-07-31T01:47:48.784Z,74210
2016-07-31T01:47:57.465Z,74215
2016-07-31T01:48:06.196Z,74212
2016-07-31T01:48:14.919Z,74214
2016-07-31T01:48:23.643Z,74214
2016-07-31T01:48:32.333Z,74218
2016-07-31T01:48:41.087Z,74213
2016-07-31T01:48:49.792Z,74218
2016-07-31T01:48:58.506Z,74219
2016-07-31T01:49:07.165Z,74221
2016-07-31T01:49:15.830Z,74218
2016-07-31T01:49:24.552Z,74217
2016-07-31T01:49:33.264Z,74218
2016-07-31T01:49:41.975Z,74213
2016-07-31T01:49:50.694Z,74211
2016-07-31T01:49:59.403Z,74209
2016-07-31T01:50:08.086Z,74212
2016-07-31T01:50:16.776Z,74214
2016-07-31T01:50:25.455Z,74215
2016-07-31T01:50:34.177Z,74216
2016-07-31T01:50:42.908Z,74218
2016-07-31T01:50:51.630Z,74219
2016-07-31T01:51:01.013Z,74217
2016-07-31T01:51:09.751Z,74216
2016-07-31T01:51:18.458Z,74217
2016-07-31T01:51:27.181Z,74214
2016-07-31T01:51:35.915Z,74211
2016-07-31T01:51:44.626Z,74205
2016-07-31T01:51:53.372Z,74208
2016-07-31T01:52:02.084Z,74202
2016-07-31T01:52:10.796Z,74205
2016-07-31T01:52:19.521Z,74206
2016-07-31T01:52:28.207Z,74207
2016-07-31T01:52:36.914Z,74212
2016-07-31T01:52:45.637Z,74212
2016-07-31T01:52:54.333Z,74212
2016-07-31T01:53:03.043Z,74213
2016-07-31T01:53:11.757Z,74214
2016-07-31T01:53:20.451Z,74216
2016-07-31T01:53:29.184Z,74214
2016-07-31T01:53:37.890Z,74215
2016-07-31T01:53:46.603Z,74217